Terminal Aerodrome Forecast
Issued by NWS Pueblo, CO

Home | Current Version | Previous Version | Text Only | Print | Product List | Glossary On
Versions: 1 2 3 4 5 6 7 8 9 10 11 12 13 14 15 16 17 18 19 20 21 22 23 24 25 26 27 28
000
FTUS45 KPUB 211124
TAFPUB
TAF
KPUB 211124Z 2112/2212 30006KT P6SM SKC
     FM211800 14007KT P6SM SCT120
     FM212300 14007KT P6SM VCTS SCT070CB BKN120
     FM220000 35015G25KT P6SM VCTS BKN070CB
      TEMPO 2200/2202 VRB25G45KT -TSRA
     FM220500 35012KT P6SM SCT120=

USA.gov is the U.S. government's official web portal to all federal, state and local government web resources and services.